createdAt,value
2022-10-26T00:00:18.882Z,98313.00
2022-10-26T00:05:36.173Z,98325.00
2022-10-26T00:10:40.829Z,98328.00
2022-10-26T00:15:45.549Z,98322.00
2022-10-26T00:20:55.298Z,98320.00
2022-10-26T00:26:24.509Z,98335.00
2022-10-26T00:31:48.164Z,98319.00
2022-10-26T00:37:11.619Z,98319.00
2022-10-26T00:42:52.968Z,98324.00
2022-10-26T00:48:17.347Z,98321.00
2022-10-26T00:53:31.809Z,98327.00
2022-10-26T00:58:55.508Z,98313.00
2022-10-26T01:04:00.363Z,98322.00
2022-10-26T01:09:31.253Z,98318.00
2022-10-26T07:45:01.921Z,98282.00
2022-10-26T07:50:24.069Z,98272.00
2022-10-26T07:55:28.391Z,98291.00
2022-10-26T08:00:31.227Z,98298.00
2022-10-26T08:05:44.348Z,98288.00
2022-10-26T08:11:12.227Z,98298.00
2022-10-26T08:16:24.724Z,98303.00
2022-10-26T08:21:42.230Z,98298.00
2022-10-26T08:27:02.423Z,98295.00
2022-10-26T08:44:07.969Z,98293.00
2022-10-26T08:49:52.142Z,98293.00
2022-10-26T08:54:57.663Z,98304.00
2022-10-26T09:00:04.904Z,98291.00
2022-10-26T09:05:37.235Z,98290.00
2022-10-26T09:11:19.909Z,98298.00
2022-10-26T09:16:48.761Z,98287.00
2022-10-26T09:22:33.163Z,98296.00
2022-10-26T09:28:10.402Z,98302.00
2022-10-26T09:33:29.402Z,98298.00
2022-10-26T09:39:06.304Z,98311.00
2022-10-26T09:44:34.087Z,98319.00
2022-10-26T09:49:53.586Z,98318.00
2022-10-26T09:54:56.362Z,98326.00
2022-10-26T09:59:59.246Z,98321.00
2022-10-26T10:05:50.895Z,98328.00
2022-10-26T10:11:34.096Z,98339.00
2022-10-26T10:17:36.808Z,98346.00
2022-10-26T10:22:58.083Z,98338.00
2022-10-26T10:28:00.881Z,98336.00
2022-10-26T10:33:24.297Z,98347.00
2022-10-26T10:38:48.987Z,98346.00
2022-10-26T10:44:01.021Z,98354.00
2022-10-26T10:49:19.401Z,98354.00
2022-10-26T10:54:28.679Z,98356.00
2022-10-26T10:59:49.667Z,98365.00
2022-10-26T11:05:04.675Z,98366.00
2022-10-26T11:10:14.743Z,98374.00
2022-10-26T11:15:28.109Z,98373.00
2022-10-26T11:20:31.917Z,98374.00
2022-10-26T11:25:52.652Z,98370.00
2022-10-26T11:31:26.500Z,98371.00
2022-10-26T11:37:20.449Z,98371.00
2022-10-26T11:42:40.767Z,98366.00
2022-10-26T11:48:22.658Z,98364.00
2022-10-26T11:53:57.784Z,98364.00
2022-10-26T11:59:07.552Z,98366.00
2022-10-26T12:04:33.317Z,98368.00
2022-10-26T12:09:42.548Z,98378.00
2022-10-26T12:15:05.046Z,98372.00
2022-10-26T12:20:28.635Z,98362.00
2022-10-26T12:25:31.392Z,98367.00
2022-10-26T12:30:37.177Z,98367.00
2022-10-26T12:35:44.387Z,98366.00
2022-10-26T12:40:52.949Z,98375.00
2022-10-26T12:46:19.068Z,98379.00
2022-10-26T12:51:37.456Z,98370.00
2022-10-26T12:57:19.423Z,98372.00
2022-10-26T13:03:09.837Z,98377.00
2022-10-26T13:08:30.483Z,98381.00
2022-10-26T13:14:25.113Z,98390.00
2022-10-26T13:19:57.275Z,98389.00
2022-10-26T13:25:05.772Z,98388.00
2022-10-26T13:30:20.431Z,98380.00
2022-10-26T13:35:26.341Z,98374.00
2022-10-26T13:40:30.859Z,98380.00
2022-10-26T13:45:41.744Z,98379.00
2022-10-26T13:51:00.302Z,98379.00
2022-10-26T13:56:54.764Z,98384.00
2022-10-26T14:02:31.299Z,98395.00
2022-10-26T14:07:51.413Z,98394.00
2022-10-26T14:13:02.333Z,98393.00
2022-10-26T14:18:27.977Z,98405.00
2022-10-26T14:24:05.693Z,98409.00
2022-10-26T14:29:19.651Z,98416.00
2022-10-26T14:34:23.318Z,98423.00
2022-10-26T14:39:37.417Z,98424.00
2022-10-26T14:44:40.216Z,98419.00
2022-10-26T14:49:46.738Z,98417.00
2022-10-26T14:55:22.663Z,98418.00
2022-10-26T15:00:27.573Z,98431.00
2022-10-26T15:05:48.040Z,98442.00
2022-10-26T15:16:27.710Z,98444.00
2022-10-26T15:22:05.797Z,98446.00
2022-10-26T15:27:24.266Z,98446.00
2022-10-26T15:32:47.320Z,98446.00
2022-10-26T15:38:09.533Z,98449.00
2022-10-26T15:43:32.792Z,98443.00
2022-10-26T15:48:58.823Z,98458.00
2022-10-26T15:54:13.582Z,98462.00
2022-10-26T15:59:23.312Z,98473.00
2022-10-26T16:04:34.278Z,98484.00
2022-10-26T16:15:19.104Z,98471.00
2022-10-26T16:20:25.044Z,98484.00
2022-10-26T16:25:27.877Z,98491.00
2022-10-26T16:30:31.274Z,98493.00
2022-10-26T16:35:34.192Z,98491.00
2022-10-26T16:40:36.946Z,98500.00
2022-10-26T16:45:42.005Z,98498.00
2022-10-26T16:50:44.746Z,98502.00
2022-10-26T16:56:15.308Z,98515.00
2022-10-26T17:01:24.814Z,98517.00
2022-10-26T17:06:55.934Z,98516.00
2022-10-26T17:12:12.363Z,98517.00
2022-10-26T17:17:32.404Z,98531.00
2022-10-26T17:22:50.466Z,98541.00
2022-10-26T17:27:59.600Z,98551.00
2022-10-26T17:33:12.715Z,98555.00
2022-10-26T17:38:31.350Z,98570.00
2022-10-26T17:43:55.410Z,98582.00
2022-10-26T17:49:05.624Z,98585.00
2022-10-26T17:59:20.141Z,98600.00
2022-10-26T18:04:47.088Z,98608.00
2022-10-26T18:09:53.630Z,98607.00
2022-10-26T18:14:56.333Z,98611.00
2022-10-26T18:19:59.091Z,98611.00
2022-10-26T18:25:01.856Z,98628.00
2022-10-26T18:30:05.019Z,98627.00
2022-10-26T18:35:08.066Z,98637.00
2022-10-26T18:40:11.822Z,98641.00
2022-10-26T18:45:15.097Z,98659.00
2022-10-26T18:50:17.836Z,98660.00
2022-10-26T18:55:20.567Z,98665.00
2022-10-26T19:00:24.055Z,98674.00
2022-10-26T19:11:15.125Z,98685.00
2022-10-26T19:16:47.445Z,98696.00
2022-10-26T19:22:11.937Z,98707.00
2022-10-26T19:27:28.287Z,98697.00
2022-10-26T19:32:48.746Z,98705.00
2022-10-26T19:38:02.806Z,98719.00
2022-10-26T19:43:16.581Z,98725.00
